createdAt,value
2022-07-31T00:03:03.002Z,17.10
2022-07-31T00:07:05.905Z,17.17
2022-07-31T00:11:12.240Z,17.08
2022-07-31T00:15:14.745Z,17.09
2022-07-31T00:19:17.713Z,17.19
2022-07-31T00:23:19.935Z,17.00
2022-07-31T00:27:24.184Z,16.93
2022-07-31T00:31:26.527Z,16.99
2022-07-31T00:35:28.823Z,17.04
2022-07-31T00:39:32.798Z,17.03
2022-07-31T00:43:35.058Z,17.08
2022-07-31T00:47:37.595Z,17.01
2022-07-31T00:51:41.789Z,17.09
2022-07-31T00:55:51.972Z,17.16
2022-07-31T00:59:54.420Z,17.12
2022-07-31T01:03:57.070Z,17.13
2022-07-31T01:07:59.282Z,17.17
2022-07-31T01:12:10.238Z,17.18
2022-07-31T01:16:14.721Z,17.14
2022-07-31T01:20:17.985Z,17.04
2022-07-31T01:24:42.029Z,17.07
2022-07-31T01:29:15.304Z,16.99
2022-07-31T01:33:24.553Z,17.03
2022-07-31T01:38:08.843Z,17.05
2022-07-31T01:42:14.776Z,17.04
2022-07-31T01:46:20.149Z,16.99
2022-07-31T01:50:43.683Z,17.06
2022-07-31T01:54:49.631Z,17.05
2022-07-31T01:58:54.843Z,17.02
2022-07-31T02:03:18.766Z,17.07
2022-07-31T02:07:45.309Z,17.15
2022-07-31T02:11:53.301Z,17.14
2022-07-31T02:15:58.236Z,16.99
2022-07-31T02:20:03.000Z,16.88
2022-07-31T02:24:05.515Z,16.96
2022-07-31T02:28:13.384Z,17.00
2022-07-31T02:32:17.942Z,16.81
2022-07-31T02:36:22.896Z,16.86
2022-07-31T02:40:27.061Z,16.87
2022-07-31T02:44:32.393Z,16.76
2022-07-31T02:48:37.599Z,16.80
2022-07-31T02:52:44.343Z,16.90
2022-07-31T02:56:47.695Z,16.76
2022-07-31T03:01:04.272Z,16.78
2022-07-31T03:05:08.079Z,16.86
2022-07-31T03:09:10.466Z,16.93
2022-07-31T03:13:14.005Z,16.92
2022-07-31T03:17:20.028Z,16.85
2022-07-31T03:21:23.087Z,16.84
2022-07-31T03:25:26.622Z,16.95
2022-07-31T03:29:41.883Z,17.03
2022-07-31T03:33:46.285Z,16.95
2022-07-31T03:37:50.503Z,16.95
2022-07-31T03:41:55.260Z,17.07
2022-07-31T03:45:59.744Z,16.98
2022-07-31T03:50:02.457Z,17.10
2022-07-31T03:54:05.438Z,16.95
2022-07-31T03:58:25.519Z,16.94
2022-07-31T04:02:29.418Z,16.98
2022-07-31T04:06:40.866Z,16.95
2022-07-31T04:10:43.146Z,17.05
2022-07-31T04:14:53.632Z,17.08
2022-07-31T04:18:55.746Z,16.95
2022-07-31T04:22:59.142Z,17.00
2022-07-31T04:27:19.843Z,17.03
2022-07-31T04:31:22.587Z,17.07
2022-07-31T04:35:24.790Z,17.03
2022-07-31T04:39:27.204Z,16.90
2022-07-31T04:43:30.764Z,16.93
2022-07-31T04:47:33.088Z,16.85
2022-07-31T04:51:35.272Z,16.86
2022-07-31T04:55:37.653Z,16.88
2022-07-31T04:59:59.265Z,16.90
2022-07-31T05:04:02.271Z,16.86
2022-07-31T05:08:04.529Z,16.90
2022-07-31T05:12:16.187Z,16.94
2022-07-31T05:16:19.525Z,16.91
2022-07-31T05:20:21.831Z,16.90
2022-07-31T05:24:54.046Z,16.89
2022-07-31T05:28:58.827Z,16.82
2022-07-31T05:33:02.304Z,16.94
2022-07-31T05:37:04.722Z,16.99
2022-07-31T05:41:09.272Z,16.95
2022-07-31T05:45:32.483Z,16.94
2022-07-31T05:49:34.560Z,16.95
2022-07-31T05:53:37.790Z,17.00
2022-07-31T05:57:58.335Z,16.90
2022-07-31T06:02:01.450Z,16.83
2022-07-31T06:06:07.081Z,16.80
2022-07-31T06:10:09.903Z,16.68
2022-07-31T06:14:12.183Z,16.71
2022-07-31T06:18:41.461Z,16.81
2022-07-31T06:22:44.261Z,16.77
2022-07-31T06:26:47.028Z,16.78
2022-07-31T06:30:50.174Z,16.81
2022-07-31T06:34:52.901Z,16.83
2022-07-31T06:38:55.240Z,16.86
2022-07-31T06:43:06.738Z,16.98
2022-07-31T06:47:29.070Z,16.88
2022-07-31T06:51:32.516Z,16.97
2022-07-31T06:55:34.831Z,16.97
2022-07-31T06:59:40.180Z,16.94
2022-07-31T07:03:46.010Z,16.92
2022-07-31T07:07:48.998Z,17.05
2022-07-31T07:11:54.790Z,17.03
2022-07-31T07:15:58.093Z,17.14
2022-07-31T07:20:02.095Z,17.18
2022-07-31T07:24:05.666Z,17.13
2022-07-31T07:28:30.160Z,17.10
2022-07-31T07:32:35.868Z,17.27
2022-07-31T07:36:38.152Z,17.30
2022-07-31T07:41:00.707Z,17.33
2022-07-31T07:45:08.103Z,17.41
2022-07-31T07:49:11.348Z,17.48
2022-07-31T07:53:19.514Z,17.49
2022-07-31T07:57:43.685Z,17.56
2022-07-31T08:02:04.609Z,17.55
2022-07-31T08:06:08.489Z,17.71
2022-07-31T08:10:12.543Z,17.73
2022-07-31T08:14:31.867Z,17.74
2022-07-31T08:18:53.236Z,17.84
2022-07-31T08:22:55.616Z,17.91
2022-07-31T08:27:16.406Z,17.98
2022-07-31T08:31:24.261Z,18.00
2022-07-31T08:35:50.208Z,18.07
2022-07-31T08:39:53.820Z,18.10
2022-07-31T08:44:04.183Z,18.12
2022-07-31T08:48:09.906Z,18.16
2022-07-31T08:52:25.916Z,18.31
2022-07-31T08:56:40.791Z,18.38
2022-07-31T09:00:44.112Z,18.50
2022-07-31T09:04:51.780Z,18.48
2022-07-31T09:08:57.567Z,18.43
2022-07-31T09:13:00.452Z,18.48
2022-07-31T09:17:15.486Z,18.50
2022-07-31T09:21:17.797Z,18.56
2022-07-31T09:25:19.991Z,18.64
2022-07-31T09:29:34.357Z,18.80
2022-07-31T09:33:45.530Z,18.73
2022-07-31T09:38:06.434Z,18.75
2022-07-31T09:42:45.654Z,18.79
2022-07-31T09:46:55.276Z,18.81
2022-07-31T09:51:03.470Z,18.89
2022-07-31T09:55:16.313Z,19.03
2022-07-31T09:59:20.531Z,18.97
2022-07-31T10:03:25.665Z,19.01
2022-07-31T10:07:35.991Z,19.12
2022-07-31T10:11:52.256Z,19.02
2022-07-31T10:16:00.691Z,18.98
2022-07-31T10:20:24.955Z,18.86
2022-07-31T10:24:48.060Z,18.98
2022-07-31T10:28:51.685Z,18.79
2022-07-31T10:32:54.098Z,18.70
2022-07-31T10:37:12.908Z,18.74
2022-07-31T10:42:20.044Z,18.77
2022-07-31T10:46:32.729Z,18.76
2022-07-31T10:51:09.451Z,18.68
2022-07-31T10:55:38.994Z,18.70
2022-07-31T10:59:54.161Z,18.66
2022-07-31T11:04:32.501Z,18.79
2022-07-31T11:08:54.975Z,18.59
2022-07-31T11:13:18.085Z,18.69
2022-07-31T11:18:23.679Z,18.72
2022-07-31T11:22:30.933Z,18.78
2022-07-31T11:26:41.906Z,18.92
2022-07-31T11:30:51.249Z,18.89
2022-07-31T11:34:55.091Z,18.76
2022-07-31T11:38:57.516Z,18.87
2022-07-31T11:48:09.789Z,18.83
2022-07-31T11:51:48.291Z,18.85
2022-07-31T11:55:55.919Z,18.68
2022-07-31T11:59:58.128Z,18.68
2022-07-31T12:04:08.448Z,18.66
2022-07-31T12:08:12.074Z,18.68
2022-07-31T12:12:14.471Z,18.70
2022-07-31T12:16:18.850Z,18.59
2022-07-31T12:20:34.506Z,18.44
2022-07-31T12:24:39.443Z,18.46
2022-07-31T12:28:43.781Z,18.56
2022-07-31T12:32:46.053Z,18.57
2022-07-31T12:37:04.419Z,18.41
2022-07-31T12:41:07.197Z,18.48
2022-07-31T12:45:19.321Z,18.64
2022-07-31T12:49:22.707Z,18.68
2022-07-31T12:53:25.119Z,18.63
2022-07-31T12:57:28.886Z,18.40
2022-07-31T13:01:31.912Z,18.33
2022-07-31T13:05:34.219Z,18.38
2022-07-31T13:09:36.719Z,18.40
2022-07-31T13:13:39.045Z,18.30
2022-07-31T13:17:43.896Z,18.50
2022-07-31T13:21:53.021Z,18.48
2022-07-31T13:26:00.119Z,18.51
2022-07-31T13:30:02.447Z,18.45
2022-07-31T13:34:07.004Z,18.37
2022-07-31T13:38:09.393Z,18.47
2022-07-31T13:42:11.819Z,18.52
2022-07-31T13:46:13.930Z,18.30
2022-07-31T13:50:16.271Z,18.50
2022-07-31T13:54:18.304Z,18.43
2022-07-31T13:58:21.345Z,18.46
2022-07-31T14:02:23.689Z,18.31
2022-07-31T14:06:26.148Z,18.25
2022-07-31T14:10:30.402Z,18.21
2022-07-31T14:14:35.554Z,18.20
2022-07-31T14:18:37.876Z,18.12
2022-07-31T14:22:41.414Z,18.11
2022-07-31T14:26:44.256Z,17.94
2022-07-31T14:30:46.642Z,17.98
2022-07-31T14:34:53.167Z,17.96
2022-07-31T14:38:55.577Z,17.90
2022-07-31T14:42:58.368Z,17.85
2022-07-31T14:47:00.757Z,17.94
2022-07-31T14:51:03.868Z,17.95
2022-07-31T14:55:06.874Z,17.88
2022-07-31T14:59:09.148Z,18.07
2022-07-31T15:03:11.698Z,17.93
2022-07-31T15:07:34.166Z,17.86
2022-07-31T15:11:57.432Z,17.84
2022-07-31T15:15:58.443Z,17.90
2022-07-31T15:20:00.867Z,17.88
2022-07-31T15:24:03.077Z,17.80
2022-07-31T15:28:05.518Z,17.89
2022-07-31T15:32:07.731Z,17.85
2022-07-31T15:36:14.803Z,17.80
2022-07-31T15:40:18.072Z,17.83
2022-07-31T15:44:20.318Z,17.80
2022-07-31T15:48:24.299Z,17.66
2022-07-31T15:52:26.865Z,17.74
2022-07-31T15:56:28.970Z,17.67
2022-07-31T16:00:31.363Z,17.64
2022-07-31T16:04:33.383Z,17.64
2022-07-31T16:08:36.837Z,17.51
2022-07-31T16:12:39.367Z,17.52
2022-07-31T16:16:45.716Z,17.36
2022-07-31T16:20:48.121Z,17.35
2022-07-31T16:24:50.447Z,17.34
2022-07-31T16:28:54.295Z,17.46
2022-07-31T16:32:56.997Z,17.43
2022-07-31T16:36:59.136Z,17.33
2022-07-31T16:41:01.645Z,17.26
2022-07-31T16:45:05.110Z,17.37
2022-07-31T16:49:35.256Z,17.32
2022-07-31T16:54:10.417Z,17.26
2022-07-31T16:57:53.340Z,17.19
2022-07-31T17:02:00.598Z,17.16
2022-07-31T17:06:04.085Z,17.13
2022-07-31T17:10:06.839Z,16.94
2022-07-31T17:14:09.217Z,17.01
2022-07-31T17:18:11.696Z,16.97
2022-07-31T17:22:17.993Z,16.94
2022-07-31T17:26:22.267Z,16.89
2022-07-31T17:30:24.700Z,16.73
2022-07-31T17:34:26.843Z,16.90
2022-07-31T17:38:29.146Z,16.69
2022-07-31T17:42:31.257Z,16.95
2022-07-31T17:46:36.253Z,16.75
2022-07-31T17:50:38.791Z,16.83
2022-07-31T17:54:41.278Z,16.64
2022-07-31T17:58:44.126Z,16.73
2022-07-31T18:02:46.603Z,16.74
2022-07-31T18:06:54.508Z,16.69
2022-07-31T18:10:57.396Z,16.73
2022-07-31T18:14:59.510Z,16.67
2022-07-31T18:19:01.770Z,16.74
2022-07-31T18:23:05.577Z,16.59
2022-07-31T18:27:12.602Z,16.62
2022-07-31T18:31:32.584Z,16.56
2022-07-31T18:35:38.323Z,16.56
2022-07-31T18:39:48.839Z,16.43
2022-07-31T18:43:51.681Z,16.48
2022-07-31T18:47:54.856Z,16.69
2022-07-31T18:51:57.215Z,16.62
2022-07-31T18:55:59.324Z,16.54
2022-07-31T19:00:02.059Z,16.63
2022-07-31T19:04:04.440Z,16.55
2022-07-31T19:08:06.805Z,16.42
2022-07-31T19:12:10.217Z,16.31
2022-07-31T19:16:12.876Z,16.27
2022-07-31T19:20:56.304Z,16.31
2022-07-31T19:24:42.745Z,16.41
2022-07-31T19:28:45.642Z,16.47
2022-07-31T19:32:47.909Z,16.22
2022-07-31T19:36:49.926Z,16.28
2022-07-31T19:40:52.885Z,16.32
2022-07-31T19:44:54.984Z,16.30
2022-07-31T19:48:57.540Z,16.28
2022-07-31T19:52:59.646Z,16.26
2022-07-31T19:57:02.209Z,16.36
2022-07-31T20:01:05.803Z,16.36
2022-07-31T20:05:09.577Z,16.26
2022-07-31T20:09:11.640Z,16.19
2022-07-31T20:13:13.926Z,16.25
2022-07-31T20:17:16.500Z,16.17
2022-07-31T20:21:19.243Z,16.12
2022-07-31T20:25:21.468Z,16.22
2022-07-31T20:29:25.206Z,16.20
2022-07-31T20:33:27.476Z,16.05
2022-07-31T20:37:29.941Z,16.07
2022-07-31T20:41:32.860Z,16.24
2022-07-31T20:45:35.161Z,16.29
2022-07-31T20:49:43.782Z,16.18
2022-07-31T20:53:49.108Z,16.09
2022-07-31T20:57:51.204Z,16.24
2022-07-31T21:01:53.493Z,16.13
2022-07-31T21:05:56.664Z,16.04
2022-07-31T21:09:59.055Z,16.26
2022-07-31T21:14:03.086Z,16.17
2022-07-31T21:18:08.222Z,16.13
2022-07-31T21:22:10.303Z,16.12
2022-07-31T21:26:14.475Z,16.14
2022-07-31T21:30:16.700Z,16.11
2022-07-31T21:34:19.335Z,16.09
2022-07-31T21:38:21.717Z,16.06
2022-07-31T21:42:24.208Z,15.95
2022-07-31T21:46:29.448Z,15.87
2022-07-31T21:50:31.902Z,16.07
2022-07-31T21:54:34.260Z,16.04
2022-07-31T21:58:37.471Z,15.89
2022-07-31T22:02:39.502Z,16.07
2022-07-31T22:07:00.467Z,15.97
2022-07-31T22:11:02.618Z,15.90
2022-07-31T22:15:06.522Z,15.90
2022-07-31T22:19:09.142Z,15.82
2022-07-31T22:23:11.806Z,16.03
2022-07-31T22:27:32.870Z,16.01
2022-07-31T22:31:35.288Z,15.91
2022-07-31T22:35:37.755Z,15.88
2022-07-31T22:39:40.454Z,15.86
2022-07-31T22:44:13.153Z,15.91
2022-07-31T22:48:05.669Z,16.02
2022-07-31T22:52:07.880Z,16.12
2022-07-31T22:56:10.490Z,16.11
2022-07-31T23:00:14.411Z,16.11
2022-07-31T23:04:16.854Z,16.17
2022-07-31T23:08:18.869Z,16.05
2022-07-31T23:12:21.026Z,16.12
2022-07-31T23:16:23.137Z,16.18
2022-07-31T23:20:25.434Z,16.06
2022-07-31T23:24:27.528Z,16.00
2022-07-31T23:28:29.764Z,16.04
2022-07-31T23:32:31.809Z,16.02
2022-07-31T23:36:34.096Z,16.04
2022-07-31T23:40:36.085Z,15.95
2022-07-31T23:44:40.012Z,16.06
2022-07-31T23:48:43.172Z,16.08
2022-07-31T23:52:45.772Z,16.11
2022-07-31T23:56:47.923Z,16.06
